Time;durP1;ratioP1;P1;durP2;ratioP2;P2;SDS_P1;SDS_P2;PMS_P1;PMS_P2;Temp;Humidity;BMP_temperature;BMP_pressure;BME280_temperature;BME280_humidity;BME280_pressure;Samples;Min_cycle;Max_cycle;Signal;HPM_P1;HPM_P2
2022/01/27 00:00:16;;;;;;;69.68;18.40;;;;;;;;;;4964325;28;20054;-82
2022/01/27 00:02:38;;;;;;;58.45;18.08;;;;;;;;;;4960655;28;20047;-82
2022/01/27 00:05:12;;;;;;;61.78;17.83;;;;;;;;;;4945366;28;20055;-81
2022/01/27 00:07:39;;;;;;;71.40;17.95;;;;;;;;;;4932098;28;20054;-82
2022/01/27 00:12:58;;;;;;;70.53;19.58;;;;;;;;;;4945956;28;20061;-82
2022/01/27 00:15:31;;;;;;;56.05;17.45;;;;;;;;;;4946837;28;20111;-81
2022/01/27 00:18:03;;;;;;;70.10;17.30;;;;;;;;;;4947397;28;20051;-82
2022/01/27 00:20:31;;;;;;;71.85;19.48;;;;;;;;;;4944147;28;20035;-82
2022/01/27 00:22:59;;;;;;;71.95;18.10;;;;;;;;;;4951096;28;20059;-81
2022/01/27 00:25:27;;;;;;;67.20;18.08;;;;;;;;;;4933737;28;20556;-81
2022/01/27 00:27:55;;;;;;;71.68;19.35;;;;;;;;;;4931693;28;20047;-81
2022/01/27 00:30:23;;;;;;;66.90;18.50;;;;;;;;;;4946925;28;20047;-81
2022/01/27 00:32:51;;;;;;;67.30;18.98;;;;;;;;;;4947009;28;20071;-81
2022/01/27 00:35:19;;;;;;;65.95;19.88;;;;;;;;;;4954751;28;20035;-82
2022/01/27 00:37:47;;;;;;;69.18;18.55;;;;;;;;;;4954437;28;20043;-81
2022/01/27 00:40:15;;;;;;;61.92;18.48;;;;;;;;;;4955091;28;20620;-81
2022/01/27 00:42:44;;;;;;;63.88;18.38;;;;;;;;;;4953150;28;20050;-81
2022/01/27 00:45:13;;;;;;;64.57;18.98;;;;;;;;;;4947645;28;20126;-81
2022/01/27 00:47:41;;;;;;;62.47;17.90;;;;;;;;;;4945685;28;20047;-80
2022/01/27 00:50:09;;;;;;;78.35;19.92;;;;;;;;;;4930046;28;20058;-81
2022/01/27 00:52:42;;;;;;;70.25;18.67;;;;;;;;;;4961075;28;20043;-81
2022/01/27 00:55:11;;;;;;;68.45;19.73;;;;;;;;;;4986478;28;20098;-81
2022/01/27 01:00:26;;;;;;;72.05;21.20;;;;;;;;;;4976447;28;20062;-81
2022/01/27 01:03:09;;;;;;;77.18;21.38;;;;;;;;;;4971571;28;20071;-81
2022/01/27 01:14:26;;;;;;;;;;;;;;;;;;4972334;28;20419;-81
2022/01/27 01:22:04;;;;;;;78.05;23.00;;;;;;;;;;4968462;28;20039;-81
2022/01/27 01:30:44;;;;;;;86.78;24.83;;;;;;;;;;4966629;28;20110;-81
2022/01/27 01:33:13;;;;;;;75.88;21.63;;;;;;;;;;4972001;28;20142;-81
2022/01/27 01:36:00;;;;;;;67.65;21.48;;;;;;;;;;4972754;28;20077;-81
2022/01/27 01:38:29;;;;;;;74.10;21.90;;;;;;;;;;4990098;28;20129;-81
2022/01/27 01:40:57;;;;;;;83.18;22.70;;;;;;;;;;4968145;28;20070;-81
2022/01/27 01:43:25;;;;;;;74.65;21.73;;;;;;;;;;4973324;28;20082;-81
2022/01/27 01:45:53;;;;;;;73.82;21.38;;;;;;;;;;4984394;28;20054;-82
2022/01/27 01:48:21;;;;;;;82.47;22.33;;;;;;;;;;4957391;28;20043;-82
2022/01/27 01:50:49;;;;;;;65.80;21.15;;;;;;;;;;4973906;28;20709;-82
2022/01/27 01:53:17;;;;;;;79.35;23.40;;;;;;;;;;4967078;28;20055;-82
2022/01/27 01:55:45;;;;;;;86.40;25.40;;;;;;;;;;4974807;28;20051;-82
2022/01/27 01:58:13;;;;;;;72.45;22.42;;;;;;;;;;4959410;28;20082;-82
2022/01/27 02:00:41;;;;;;;86.13;23.50;;;;;;;;;;4977069;28;20043;-82
2022/01/27 02:03:09;;;;;;;75.60;24.20;;;;;;;;;;5004414;28;20123;-82
2022/01/27 02:05:44;;;;;;;87.82;25.40;;;;;;;;;;4974299;28;20043;-82
2022/01/27 02:08:33;;;;;;;90.57;25.00;;;;;;;;;;4978661;28;21120;-82
2022/01/27 02:19:24;;;;;;;71.00;25.38;;;;;;;;;;4967863;28;22862;-82
2022/01/27 02:21:54;;;;;;;71.43;24.25;;;;;;;;;;4968642;28;20057;-82
2022/01/27 02:24:23;;;;;;;63.35;22.35;;;;;;;;;;4987700;28;20194;-82
2022/01/27 02:26:52;;;;;;;69.20;21.52;;;;;;;;;;4986711;28;20630;-82
2022/01/27 02:29:20;;;;;;;66.85;22.60;;;;;;;;;;4972121;28;20043;-82
2022/01/27 02:31:50;;;;;;;66.38;21.77;;;;;;;;;;4972434;28;20062;-82
2022/01/27 02:34:22;;;;;;;72.57;22.27;;;;;;;;;;4986923;28;20143;-82
2022/01/27 02:36:49;;;;;;;73.43;22.55;;;;;;;;;;4974193;28;20099;-82
2022/01/27 02:39:18;;;;;;;63.20;21.17;;;;;;;;;;4974274;28;20102;-82
2022/01/27 02:41:46;;;;;;;56.85;20.02;;;;;;;;;;4975471;28;20118;-82
2022/01/27 02:44:34;;;;;;;58.08;19.30;;;;;;;;;;4965955;28;20563;-82
2022/01/27 02:47:01;;;;;;;62.83;21.83;;;;;;;;;;4975312;28;20050;-82
2022/01/27 02:49:29;;;;;;;69.05;20.83;;;;;;;;;;4973306;28;20045;-83
2022/01/27 02:51:57;;;;;;;60.85;20.90;;;;;;;;;;5005901;28;20456;-82
2022/01/27 02:54:25;;;;;;;56.65;21.17;;;;;;;;;;4975346;28;20038;-82
2022/01/27 02:57:13;;;;;;;59.20;20.60;;;;;;;;;;4976446;28;20043;-82
2022/01/27 02:59:41;;;;;;;56.33;17.92;;;;;;;;;;4975343;28;20310;-82
2022/01/27 03:02:09;;;;;;;50.90;17.88;;;;;;;;;;4972570;28;20506;-82
2022/01/27 03:04:37;;;;;;;47.45;17.70;;;;;;;;;;4966420;28;20062;-82
2022/01/27 03:07:07;;;;;;;53.50;18.65;;;;;;;;;;4965875;28;20283;-82
2022/01/27 03:09:36;;;;;;;60.78;18.90;;;;;;;;;;4976244;28;20543;-82
2022/01/27 03:12:10;;;;;;;45.60;17.90;;;;;;;;;;4966986;28;20094;-82
2022/01/27 03:14:41;;;;;;;50.13;19.48;;;;;;;;;;4964221;28;20134;-82
2022/01/27 03:17:10;;;;;;;46.88;17.50;;;;;;;;;;4966127;28;20113;-82
2022/01/27 03:19:39;;;;;;;47.72;17.83;;;;;;;;;;4965170;28;20039;-82
2022/01/27 03:22:08;;;;;;;61.75;19.48;;;;;;;;;;4968412;28;20047;-82
2022/01/27 03:24:37;;;;;;;54.25;18.95;;;;;;;;;;4999674;28;20544;-82
2022/01/27 03:27:12;;;;;;;51.15;18.42;;;;;;;;;;4965497;28;20292;-82
2022/01/27 03:29:41;;;;;;;51.65;19.08;;;;;;;;;;4964647;28;20066;-82
2022/01/27 03:32:10;;;;;;;49.00;19.98;;;;;;;;;;4966973;28;20050;-82
2022/01/27 03:34:39;;;;;;;48.58;18.60;;;;;;;;;;4975320;28;20039;-82
2022/01/27 03:37:07;;;;;;;51.50;19.65;;;;;;;;;;4978079;28;20042;-82
2022/01/27 03:39:40;;;;;;;57.67;20.27;;;;;;;;;;4977524;28;20039;-82
2022/01/27 03:42:08;;;;;;;60.28;18.63;;;;;;;;;;4974832;28;20090;-82
2022/01/27 03:44:35;;;;;;;55.83;19.65;;;;;;;;;;4970368;28;20559;-82
2022/01/27 03:47:04;;;;;;;55.83;20.10;;;;;;;;;;4971010;28;20042;-82
2022/01/27 03:49:31;;;;;;;47.47;17.13;;;;;;;;;;4984978;28;20077;-82
2022/01/27 03:51:59;;;;;;;48.90;17.65;;;;;;;;;;4966362;28;20039;-82
2022/01/27 03:54:30;;;;;;;49.80;18.55;;;;;;;;;;4970796;28;20051;-82
2022/01/27 03:57:00;;;;;;;57.00;17.50;;;;;;;;;;4953163;28;20047;-82
2022/01/27 03:59:29;;;;;;;57.67;18.35;;;;;;;;;;4938174;28;20070;-83
2022/01/27 04:01:57;;;;;;;54.70;18.75;;;;;;;;;;4952885;28;20047;-82
2022/01/27 04:04:26;;;;;;;54.22;19.40;;;;;;;;;;4955669;28;20063;-82
2022/01/27 04:06:57;;;;;;;54.63;19.55;;;;;;;;;;4962910;28;20039;-82
2022/01/27 04:09:26;;;;;;;56.05;19.58;;;;;;;;;;4960619;28;20031;-82
2022/01/27 04:11:55;;;;;;;54.45;18.67;;;;;;;;;;4954344;28;20039;-82
2022/01/27 04:14:23;;;;;;;66.60;19.08;;;;;;;;;;4964479;28;20031;-82
2022/01/27 04:16:53;;;;;;;53.97;19.58;;;;;;;;;;4984265;28;20055;-82
2022/01/27 04:19:21;;;;;;;56.78;19.77;;;;;;;;;;4953139;29;20063;-82
2022/01/27 04:21:51;;;;;;;62.47;20.20;;;;;;;;;;4961407;28;20039;-81
2022/01/27 04:24:19;;;;;;;51.55;18.90;;;;;;;;;;4932516;28;20546;-82
2022/01/27 04:26:51;;;;;;;53.60;18.80;;;;;;;;;;4951567;28;20039;-82
2022/01/27 04:29:21;;;;;;;57.38;17.35;;;;;;;;;;4940504;28;20043;-82
2022/01/27 04:31:50;;;;;;;52.97;18.13;;;;;;;;;;4956863;28;20043;-82
2022/01/27 04:34:19;;;;;;;51.83;18.55;;;;;;;;;;4963642;28;20058;-82
2022/01/27 04:36:47;;;;;;;54.38;18.40;;;;;;;;;;4983621;28;20133;-82
2022/01/27 04:39:25;;;;;;;61.42;20.13;;;;;;;;;;4951203;29;20430;-82
2022/01/27 04:42:03;;;;;;;51.95;18.05;;;;;;;;;;4962703;28;20043;-81
2022/01/27 04:44:48;;;;;;;50.75;19.70;;;;;;;;;;4958180;28;20235;-82
2022/01/27 04:47:25;;;;;;;44.75;17.65;;;;;;;;;;4960268;28;20067;-82
2022/01/27 04:49:53;;;;;;;52.67;19.23;;;;;;;;;;4942679;29;20043;-82
2022/01/27 04:52:21;;;;;;;49.92;18.30;;;;;;;;;;4967405;28;21249;-82
2022/01/27 04:55:24;;;;;;;52.22;18.30;;;;;;;;;;4962409;28;20527;-82
2022/01/27 04:57:45;;;;;;;46.63;16.80;;;;;;;;;;4988934;28;20047;-82
2022/01/27 05:00:16;;;;;;;39.75;15.65;;;;;;;;;;4988881;28;20436;-82
2022/01/27 05:02:48;;;;;;;51.28;18.65;;;;;;;;;;4977429;28;20023;-81
2022/01/27 05:05:21;;;;;;;49.70;19.00;;;;;;;;;;4972375;28;20035;-82
2022/01/27 05:08:01;;;;;;;48.00;18.50;;;;;;;;;;4968821;28;20074;-82
2022/01/27 05:10:33;;;;;;;50.75;19.90;;;;;;;;;;4972197;28;20097;-82
2022/01/27 05:13:09;;;;;;;41.85;16.90;;;;;;;;;;4977896;28;20474;-82
2022/01/27 05:15:43;;;;;;;49.15;17.67;;;;;;;;;;4968988;28;20050;-82
2022/01/27 05:18:12;;;;;;;49.25;16.25;;;;;;;;;;4969144;28;20050;-81
2022/01/27 05:20:39;;;;;;;45.28;16.58;;;;;;;;;;4953629;28;20043;-81
2022/01/27 05:23:07;;;;;;;45.33;15.75;;;;;;;;;;4974468;28;20039;-81
2022/01/27 05:25:35;;;;;;;42.47;16.48;;;;;;;;;;4969136;28;20069;-81
2022/01/27 05:28:04;;;;;;;41.20;16.25;;;;;;;;;;4971772;28;20133;-81
2022/01/27 05:30:32;;;;;;;43.97;16.23;;;;;;;;;;4969498;28;20046;-81
2022/01/27 05:33:00;;;;;;;43.65;16.83;;;;;;;;;;4972046;28;20042;-81
2022/01/27 05:35:28;;;;;;;50.38;17.27;;;;;;;;;;4994724;28;20042;-82
2022/01/27 05:37:57;;;;;;;44.67;16.75;;;;;;;;;;4975014;28;20035;-82
2022/01/27 05:40:25;;;;;;;47.65;17.02;;;;;;;;;;4989604;28;20072;-81
2022/01/27 05:42:53;;;;;;;46.45;16.92;;;;;;;;;;4977579;28;20398;-81
2022/01/27 05:45:21;;;;;;;45.83;16.45;;;;;;;;;;4978001;28;20047;-81
2022/01/27 05:47:50;;;;;;;44.70;16.08;;;;;;;;;;4976319;28;20048;-81
2022/01/27 05:50:17;;;;;;;51.63;19.55;;;;;;;;;;4959205;28;20065;-81
2022/01/27 05:52:48;;;;;;;49.90;16.20;;;;;;;;;;4973032;28;20034;-81
2022/01/27 05:55:15;;;;;;;41.80;15.30;;;;;;;;;;4988404;28;20051;-82
2022/01/27 05:57:43;;;;;;;47.40;15.85;;;;;;;;;;4988516;28;20051;-82
2022/01/27 06:00:12;;;;;;;45.65;17.50;;;;;;;;;;4985700;28;20049;-82
2022/01/27 06:02:39;;;;;;;43.88;15.68;;;;;;;;;;4976124;28;20054;-82
2022/01/27 06:05:15;;;;;;;38.25;14.48;;;;;;;;;;4975951;28;20062;-82
2022/01/27 06:07:43;;;;;;;40.20;16.05;;;;;;;;;;4974540;28;20053;-82
2022/01/27 06:10:11;;;;;;;46.88;15.95;;;;;;;;;;4974406;28;20049;-82
2022/01/27 06:12:51;;;;;;;39.05;15.77;;;;;;;;;;4974753;28;20030;-82
2022/01/27 06:15:20;;;;;;;38.58;14.68;;;;;;;;;;4961127;28;20126;-82
2022/01/27 06:17:48;;;;;;;34.05;13.60;;;;;;;;;;4969612;28;20057;-82
2022/01/27 06:20:18;;;;;;;39.08;15.77;;;;;;;;;;4967703;28;20788;-81
2022/01/27 06:23:11;;;;;;;40.85;14.63;;;;;;;;;;4981862;28;20059;-85
2022/01/27 06:25:40;;;;;;;38.78;13.85;;;;;;;;;;4980680;28;20089;-84
2022/01/27 06:28:17;;;;;;;39.22;14.23;;;;;;;;;;4946072;28;20216;-82
2022/01/27 06:30:46;;;;;;;37.40;13.32;;;;;;;;;;4968174;28;20066;-82
2022/01/27 06:33:13;;;;;;;35.40;12.55;;;;;;;;;;4970290;28;20046;-82
2022/01/27 06:35:41;;;;;;;33.33;13.25;;;;;;;;;;4957430;28;20051;-82
2022/01/27 06:38:09;;;;;;;34.80;12.13;;;;;;;;;;4971063;28;20039;-82
2022/01/27 06:40:38;;;;;;;35.13;14.55;;;;;;;;;;4955801;28;20046;-82
2022/01/27 06:43:07;;;;;;;38.03;13.45;;;;;;;;;;4968870;28;20058;-82
2022/01/27 06:45:35;;;;;;;36.92;12.70;;;;;;;;;;4971326;28;20082;-82
2022/01/27 06:48:04;;;;;;;41.17;14.48;;;;;;;;;;4972971;28;20051;-82
2022/01/27 06:50:36;;;;;;;31.55;13.27;;;;;;;;;;4986010;28;20046;-82
2022/01/27 06:53:04;;;;;;;32.05;13.38;;;;;;;;;;4953673;28;20177;-82
2022/01/27 06:55:31;;;;;;;32.25;12.20;;;;;;;;;;4946653;28;20133;-83
2022/01/27 06:57:59;;;;;;;39.90;14.88;;;;;;;;;;4946297;28;21129;-81
2022/01/27 07:00:36;;;;;;;28.08;12.20;;;;;;;;;;4963663;28;20049;-86
2022/01/27 07:03:03;;;;;;;33.15;12.90;;;;;;;;;;4951887;28;20047;-81
2022/01/27 07:05:33;;;;;;;38.60;12.98;;;;;;;;;;4964012;28;20058;-81
2022/01/27 07:08:00;;;;;;;36.00;13.70;;;;;;;;;;4962890;28;20061;-81
2022/01/27 07:10:28;;;;;;;32.25;12.20;;;;;;;;;;4963639;28;20042;-81
2022/01/27 07:12:55;;;;;;;32.67;12.55;;;;;;;;;;4968876;28;20046;-81
2022/01/27 07:15:24;;;;;;;36.88;12.35;;;;;;;;;;5001111;28;20173;-81
2022/01/27 07:17:52;;;;;;;38.00;12.35;;;;;;;;;;4973238;28;20250;-81
2022/01/27 07:20:20;;;;;;;28.25;11.23;;;;;;;;;;4967687;28;20042;-82
2022/01/27 07:22:47;;;;;;;28.08;10.55;;;;;;;;;;4974827;28;20424;-81
2022/01/27 07:25:15;;;;;;;29.20;10.75;;;;;;;;;;4985171;28;20123;-81
2022/01/27 07:27:44;;;;;;;33.95;12.57;;;;;;;;;;4964959;28;20070;-81
2022/01/27 07:30:12;;;;;;;33.40;11.50;;;;;;;;;;4965053;28;20741;-82
2022/01/27 07:32:39;;;;;;;31.30;11.40;;;;;;;;;;4962860;28;20118;-81
2022/01/27 07:35:08;;;;;;;30.67;11.80;;;;;;;;;;4995807;28;20078;-81
2022/01/27 07:37:36;;;;;;;32.75;11.95;;;;;;;;;;4979885;28;20046;-84
2022/01/27 07:40:04;;;;;;;36.20;12.20;;;;;;;;;;4960811;28;20042;-82
2022/01/27 07:42:32;;;;;;;31.48;10.63;;;;;;;;;;4968224;28;22074;-81
2022/01/27 07:45:03;;;;;;;34.97;11.48;;;;;;;;;;4993488;28;20070;-82
2022/01/27 07:47:44;;;;;;;32.78;10.75;;;;;;;;;;4970259;28;20047;-81
2022/01/27 07:50:38;;;;;;;28.20;10.20;;;;;;;;;;4968034;28;20142;-82
2022/01/27 07:53:18;;;;;;;29.98;11.35;;;;;;;;;;4979864;28;20055;-82
2022/01/27 07:55:56;;;;;;;29.42;10.98;;;;;;;;;;4980347;28;20043;-82
2022/01/27 07:58:23;;;;;;;30.10;10.40;;;;;;;;;;4967961;28;20055;-82
2022/01/27 08:00:51;;;;;;;24.90;11.10;;;;;;;;;;4970568;28;20045;-82
2022/01/27 08:03:22;;;;;;;27.40;9.80;;;;;;;;;;4966163;28;20034;-82
2022/01/27 08:05:52;;;;;;;28.40;10.15;;;;;;;;;;4949606;28;20038;-82
2022/01/27 08:08:19;;;;;;;27.75;10.20;;;;;;;;;;4978645;28;20045;-82
2022/01/27 08:10:48;;;;;;;26.30;10.52;;;;;;;;;;5001241;28;20312;-82
2022/01/27 08:13:15;;;;;;;28.15;9.23;;;;;;;;;;5000495;28;20035;-83
2022/01/27 08:15:47;;;;;;;28.52;9.85;;;;;;;;;;4951428;28;20070;-83
2022/01/27 08:18:35;;;;;;;30.52;10.82;;;;;;;;;;4995773;28;20051;-83
2022/01/27 08:21:12;;;;;;;30.77;10.57;;;;;;;;;;4970545;28;20062;-83
2022/01/27 08:27:53;;;;;;;25.92;9.20;;;;;;;;;;4978028;28;20065;-83
2022/01/27 08:30:41;;;;;;;29.63;9.38;;;;;;;;;;4964567;28;20038;-83
2022/01/27 08:33:13;;;;;;;26.15;9.75;;;;;;;;;;4970089;28;20057;-82
2022/01/27 08:35:58;;;;;;;22.35;9.57;;;;;;;;;;4996820;28;20579;-82
2022/01/27 08:39:26;;;;;;;26.90;9.77;;;;;;;;;;4973906;28;20070;-83
2022/01/27 08:42:19;;;;;;;28.95;9.45;;;;;;;;;;4913458;28;20091;-83
2022/01/27 08:44:52;;;;;;;30.55;10.20;;;;;;;;;;4944934;28;20047;-82
2022/01/27 08:47:34;;;;;;;27.42;9.27;;;;;;;;;;4941758;28;20058;-82
2022/01/27 08:50:09;;;;;;;29.90;9.15;;;;;;;;;;4943176;28;20123;-83
2022/01/27 08:53:17;;;;;;;26.45;9.95;;;;;;;;;;4960550;28;20051;-83
2022/01/27 08:55:46;;;;;;;23.00;8.60;;;;;;;;;;4952564;28;20066;-83
2022/01/27 08:58:16;;;;;;;22.25;8.32;;;;;;;;;;4935743;29;20075;-82
2022/01/27 09:00:52;;;;;;;23.67;8.80;;;;;;;;;;4968893;28;20047;-83
2022/01/27 09:03:42;;;;;;;21.15;8.07;;;;;;;;;;4949612;28;20047;-82
2022/01/27 09:06:20;;;;;;;25.25;8.85;;;;;;;;;;4953467;28;20142;-83
2022/01/27 09:08:55;;;;;;;26.23;9.32;;;;;;;;;;4938083;29;20071;-82
2022/01/27 09:11:46;;;;;;;20.70;8.27;;;;;;;;;;4937425;28;20050;-82
2022/01/27 09:14:33;;;;;;;;;;;;;;;;;;4955110;28;20043;-82
2022/01/27 09:17:25;;;;;;;25.23;8.32;;;;;;;;;;4916091;29;19945;-82
2022/01/27 09:20:00;;;;;;;24.35;8.20;;;;;;;;;;4930167;28;20055;-82
2022/01/27 09:22:48;;;;;;;29.40;8.90;;;;;;;;;;4984246;28;20074;-82
2022/01/27 09:25:31;;;;;;;28.08;8.93;;;;;;;;;;4977069;28;20053;-83
2022/01/27 09:29:41;;;;;;;25.05;9.02;;;;;;;;;;4986221;28;20097;-85
2022/01/27 09:32:40;;;;;;;21.33;7.15;;;;;;;;;;4930003;29;20490;-83
2022/01/27 09:35:17;;;;;;;21.98;7.72;;;;;;;;;;4936717;29;20082;-84
2022/01/27 09:37:45;;;;;;;22.48;7.75;;;;;;;;;;4929002;29;20043;-83
2022/01/27 09:40:15;;;;;;;18.48;6.55;;;;;;;;;;4938108;29;20048;-83
2022/01/27 09:42:49;;;;;;;19.90;6.97;;;;;;;;;;4895561;29;20384;-83
2022/01/27 09:45:40;;;;;;;15.73;6.53;;;;;;;;;;4907313;29;20040;-84
2022/01/27 09:48:13;;;;;;;15.10;5.85;;;;;;;;;;4913635;29;20063;-83
2022/01/27 09:54:14;;;;;;;16.52;6.43;;;;;;;;;;4922854;29;20048;-84
2022/01/27 09:57:11;;;;;;;18.08;7.15;;;;;;;;;;4907583;29;20099;-83
2022/01/27 10:01:22;;;;;;;15.85;5.78;;;;;;;;;;4895695;29;20095;-83
2022/01/27 10:04:04;;;;;;;15.32;6.38;;;;;;;;;;4962402;28;20385;-83
2022/01/27 10:07:41;;;;;;;;;;;;;;;;;;4931001;29;20079;-82
2022/01/27 10:11:04;;;;;;;14.48;5.75;;;;;;;;;;4932231;29;19926;-83
2022/01/27 10:14:21;;;;;;;16.50;6.47;;;;;;;;;;4930527;29;20052;-83
2022/01/27 10:17:12;;;;;;;12.52;5.97;;;;;;;;;;4947208;28;20055;-83
2022/01/27 10:19:40;;;;;;;16.98;5.93;;;;;;;;;;4931593;29;20137;-83
2022/01/27 10:22:13;;;;;;;15.60;6.18;;;;;;;;;;4932065;29;20055;-82
2022/01/27 10:24:42;;;;;;;16.15;6.43;;;;;;;;;;4947503;29;20046;-83
2022/01/27 10:28:08;;;;;;;15.18;6.43;;;;;;;;;;4932015;29;20078;-83
2022/01/27 10:31:19;;;;;;;13.60;6.90;;;;;;;;;;4958607;28;20099;-81
2022/01/27 10:38:27;;;;;;;19.10;6.18;;;;;;;;;;4290942;26;20057;-82
2022/01/27 10:41:17;;;;;;;18.00;6.72;;;;;;;;;;5024222;28;20072;-81
2022/01/27 10:43:50;;;;;;;23.35;6.45;;;;;;;;;;5030016;28;20032;-81
2022/01/27 10:47:12;;;;;;;12.25;5.75;;;;;;;;;;4996797;28;20041;-81
2022/01/27 10:49:45;;;;;;;18.05;5.72;;;;;;;;;;5017659;28;20135;-81
2022/01/27 10:52:31;;;;;;;17.55;6.47;;;;;;;;;;5025130;28;20076;-81
2022/01/27 10:55:35;;;;;;;16.08;5.90;;;;;;;;;;5023012;28;20109;-81
2022/01/27 11:03:57;;;;;;;13.77;5.63;;;;;;;;;;5036079;28;20057;-81
2022/01/27 11:09:58;;;;;;;24.50;6.88;;;;;;;;;;2416562;26;20053;-81
2022/01/27 11:21:03;;;;;;;31.50;7.25;;;;;;;;;;5022028;28;20065;-81
2022/01/27 11:24:01;;;;;;;34.30;6.95;;;;;;;;;;5022041;28;20120;-81
2022/01/27 11:27:09;;;;;;;28.02;5.93;;;;;;;;;;5019966;28;20053;-81
2022/01/27 11:29:45;;;;;;;22.40;6.20;;;;;;;;;;5017402;28;20041;-81
2022/01/27 11:32:38;;;;;;;26.25;5.22;;;;;;;;;;4985175;28;20152;-81
2022/01/27 11:36:27;;;;;;;26.63;5.80;;;;;;;;;;5031062;28;20601;-82
2022/01/27 11:41:07;;;;;;;32.53;6.93;;;;;;;;;;4847705;29;20056;-82
2022/01/27 11:44:36;;;;;;;;;;;;;;;;;;5039442;28;20434;-80
2022/01/27 11:54:32;;;;;;;32.47;3.95;;;;;;;;;;5042967;28;20499;-80
2022/01/27 11:57:23;;;;;;;38.30;5.63;;;;;;;;;;5018065;28;20053;-80
2022/01/27 12:01:22;;;;;;;30.17;3.95;;;;;;;;;;5017169;28;20092;-80
2022/01/27 12:04:16;;;;;;;27.75;4.47;;;;;;;;;;5016681;28;20691;-80
2022/01/27 12:14:48;;;;;;;33.65;3.28;;;;;;;;;;5062440;28;20040;-81
2022/01/27 12:28:36;;;;;;;31.15;2.60;;;;;;;;;;4823751;26;20050;-81
2022/01/27 12:31:13;;;;;;;19.20;2.63;;;;;;;;;;5013633;28;20030;-80
2022/01/27 12:33:45;;;;;;;19.60;2.30;;;;;;;;;;4999963;28;20034;-81
2022/01/27 12:36:24;;;;;;;33.20;3.47;;;;;;;;;;5004517;28;20048;-81
2022/01/27 12:38:52;;;;;;;22.02;2.92;;;;;;;;;;5001977;28;20061;-81
2022/01/27 12:41:20;;;;;;;19.50;4.03;;;;;;;;;;5002918;28;20259;-81
2022/01/27 12:43:51;;;;;;;25.25;2.75;;;;;;;;;;4995075;28;20334;-81
2022/01/27 12:46:29;;;;;;;21.27;3.10;;;;;;;;;;4981383;28;20046;-81
2022/01/27 12:49:01;;;;;;;23.35;3.47;;;;;;;;;;4993546;28;20494;-81
2022/01/27 12:52:08;;;;;;;21.10;3.08;;;;;;;;;;4997349;28;20053;-81
2022/01/27 12:54:47;;;;;;;20.48;2.83;;;;;;;;;;4991820;28;20133;-81
2022/01/27 12:57:36;;;;;;;13.02;2.28;;;;;;;;;;4999128;28;20042;-81
2022/01/27 13:04:01;;;;;;;23.52;2.88;;;;;;;;;;5002587;28;20311;-80
2022/01/27 13:06:30;;;;;;;22.23;2.53;;;;;;;;;;4983565;28;20322;-80
2022/01/27 13:09:13;;;;;;;23.45;3.03;;;;;;;;;;4979017;28;20061;-80
2022/01/27 13:11:41;;;;;;;22.13;2.70;;;;;;;;;;4982999;28;20991;-81
2022/01/27 13:14:09;;;;;;;17.60;2.88;;;;;;;;;;5004540;28;20038;-81
2022/01/27 13:17:10;;;;;;;12.07;2.10;;;;;;;;;;4981364;28;20418;-81
2022/01/27 13:19:56;;;;;;;33.45;3.58;;;;;;;;;;4987108;28;20050;-81
2022/01/27 13:22:31;;;;;;;15.77;3.78;;;;;;;;;;4988043;28;20073;-80
2022/01/27 13:28:57;;;;;;;16.25;1.67;;;;;;;;;;1486589;26;20095;-81
2022/01/27 13:31:27;;;;;;;15.02;2.22;;;;;;;;;;5006214;28;20046;-81
2022/01/27 13:33:54;;;;;;;24.15;2.63;;;;;;;;;;4998510;28;20062;-81
2022/01/27 13:36:26;;;;;;;10.13;2.08;;;;;;;;;;4982721;28;20046;-81
2022/01/27 13:52:01;;;;;;;15.95;2.40;;;;;;;;;;4974634;28;20039;-81
2022/01/27 13:54:30;;;;;;;22.17;2.35;;;;;;;;;;4967561;28;20066;-81
2022/01/27 13:57:22;;;;;;;17.20;2.50;;;;;;;;;;4967678;28;20070;-81
2022/01/27 13:59:55;;;;;;;13.57;2.08;;;;;;;;;;4933488;28;20466;-81
2022/01/27 14:02:26;;;;;;;14.20;2.00;;;;;;;;;;4923093;28;20051;-81
2022/01/27 14:04:57;;;;;;;17.15;2.60;;;;;;;;;;4965861;28;20069;-81
2022/01/27 14:07:34;;;;;;;27.33;2.30;;;;;;;;;;4921222;28;20070;-81
2022/01/27 14:10:08;;;;;;;12.35;1.83;;;;;;;;;;4921322;28;20429;-81
2022/01/27 14:12:47;;;;;;;21.15;2.38;;;;;;;;;;4968171;28;20055;-81
2022/01/27 14:15:32;;;;;;;21.27;2.03;;;;;;;;;;4951991;28;20055;-81
2022/01/27 14:18:05;;;;;;;14.65;1.75;;;;;;;;;;4947768;28;20072;-81
2022/01/27 14:20:34;;;;;;;22.35;2.72;;;;;;;;;;4949664;28;20050;-81
2022/01/27 14:23:18;;;;;;;12.75;1.73;;;;;;;;;;4916727;28;20043;-81
2022/01/27 14:33:54;;;;;;;16.17;1.70;;;;;;;;;;4961413;28;20160;-81
2022/01/27 14:36:22;;;;;;;17.95;2.78;;;;;;;;;;4965984;28;20054;-81
2022/01/27 14:38:50;;;;;;;18.52;2.88;;;;;;;;;;4964891;28;20047;-81
2022/01/27 14:41:20;;;;;;;14.35;2.40;;;;;;;;;;4963815;28;20058;-81
2022/01/27 14:43:49;;;;;;;19.23;2.45;;;;;;;;;;4964610;28;20062;-81
2022/01/27 14:46:29;;;;;;;12.73;1.80;;;;;;;;;;4974283;28;20074;-80
2022/01/27 14:49:01;;;;;;;14.48;2.10;;;;;;;;;;4946115;28;20087;-81
2022/01/27 14:51:33;;;;;;;17.55;3.03;;;;;;;;;;4973447;28;20146;-80
2022/01/27 14:54:03;;;;;;;17.02;2.95;;;;;;;;;;4967581;28;21465;-81
2022/01/27 14:56:35;;;;;;;18.02;2.33;;;;;;;;;;4958812;28;20055;-80
2022/01/27 14:59:12;;;;;;;18.58;2.17;;;;;;;;;;4963084;28;20050;-80
2022/01/27 15:01:40;;;;;;;20.17;2.67;;;;;;;;;;4945799;28;20325;-80
2022/01/27 15:04:08;;;;;;;14.35;2.00;;;;;;;;;;4965455;28;20119;-80
2022/01/27 15:06:36;;;;;;;16.70;2.28;;;;;;;;;;4959353;28;20182;-81
2022/01/27 15:09:12;;;;;;;22.25;2.60;;;;;;;;;;4959018;28;20151;-81
2022/01/27 15:11:53;;;;;;;15.32;2.08;;;;;;;;;;4944195;28;20625;-81
2022/01/27 15:19:54;;;;;;;;;;;;;;;;;;4946720;28;20202;-81
2022/01/27 15:22:25;;;;;;;22.10;2.10;;;;;;;;;;4962595;28;19969;-82
2022/01/27 15:24:54;;;;;;;16.13;1.73;;;;;;;;;;4961267;28;20131;-80
2022/01/27 15:27:22;;;;;;;16.35;2.80;;;;;;;;;;4914478;28;20475;-81
2022/01/27 15:30:12;;;;;;;17.55;1.95;;;;;;;;;;4929710;28;20126;-81
2022/01/27 15:32:53;;;;;;;19.80;2.40;;;;;;;;;;4963641;28;20074;-80
2022/01/27 15:35:30;;;;;;;17.88;2.70;;;;;;;;;;4968591;28;20149;-82
2022/01/27 15:38:19;;;;;;;14.40;1.90;;;;;;;;;;4982189;28;20058;-81
2022/01/27 15:40:47;;;;;;;17.23;2.45;;;;;;;;;;4967910;28;20453;-82
2022/01/27 15:43:15;;;;;;;20.08;2.83;;;;;;;;;;4964880;28;20038;-81
2022/01/27 15:45:44;;;;;;;19.95;2.08;;;;;;;;;;4975006;28;20478;-81
2022/01/27 15:48:11;;;;;;;27.92;4.03;;;;;;;;;;4973001;28;20094;-81
2022/01/27 15:50:40;;;;;;;16.55;3.00;;;;;;;;;;4975726;28;20042;-81
2022/01/27 15:53:09;;;;;;;15.13;2.08;;;;;;;;;;4972592;28;20058;-81
2022/01/27 15:55:39;;;;;;;18.67;2.63;;;;;;;;;;4980840;28;20097;-81
2022/01/27 15:58:08;;;;;;;15.70;2.40;;;;;;;;;;4963506;28;20051;-81
2022/01/27 16:00:36;;;;;;;7.35;1.33;;;;;;;;;;4965684;28;20046;-81
2022/01/27 16:03:04;;;;;;;15.00;2.63;;;;;;;;;;4967764;28;20101;-81
2022/01/27 16:05:32;;;;;;;17.00;2.63;;;;;;;;;;4962655;28;20043;-81
2022/01/27 16:07:59;;;;;;;12.02;2.28;;;;;;;;;;4975528;28;20159;-81
2022/01/27 16:10:28;;;;;;;9.57;1.52;;;;;;;;;;4988719;28;20039;-81
2022/01/27 16:12:57;;;;;;;16.95;2.00;;;;;;;;;;4971942;28;20050;-81
2022/01/27 16:15:25;;;;;;;14.23;2.03;;;;;;;;;;4965241;28;20050;-81
2022/01/27 16:17:54;;;;;;;13.70;2.00;;;;;;;;;;4979490;28;20070;-82
2022/01/27 16:20:23;;;;;;;16.13;1.70;;;;;;;;;;4964164;28;20688;-81
2022/01/27 16:22:55;;;;;;;16.40;2.08;;;;;;;;;;4965778;28;20129;-81
2022/01/27 16:25:24;;;;;;;13.88;1.85;;;;;;;;;;4964362;28;20043;-81
2022/01/27 16:27:54;;;;;;;10.63;1.85;;;;;;;;;;4962343;28;20050;-81
2022/01/27 16:30:22;;;;;;;12.43;2.35;;;;;;;;;;4968090;28;20259;-81
2022/01/27 16:32:49;;;;;;;15.07;2.13;;;;;;;;;;4968706;28;20035;-81
2022/01/27 16:35:18;;;;;;;8.93;1.70;;;;;;;;;;4967685;28;20114;-81
2022/01/27 16:37:49;;;;;;;15.38;1.98;;;;;;;;;;4980645;28;20066;-81
2022/01/27 16:40:19;;;;;;;14.43;2.67;;;;;;;;;;4966500;28;20133;-82
2022/01/27 16:42:48;;;;;;;12.02;1.70;;;;;;;;;;4969722;28;20090;-81
2022/01/27 16:45:17;;;;;;;15.65;1.88;;;;;;;;;;4971755;28;20045;-82
2022/01/27 16:47:45;;;;;;;8.85;1.52;;;;;;;;;;4966629;28;20042;-85
2022/01/27 16:50:15;;;;;;;14.45;3.28;;;;;;;;;;4969841;28;20038;-82
2022/01/27 16:52:44;;;;;;;9.40;1.90;;;;;;;;;;4949108;28;20049;-83
2022/01/27 16:55:12;;;;;;;12.45;1.67;;;;;;;;;;4970250;28;20062;-82
2022/01/27 16:57:39;;;;;;;14.52;2.20;;;;;;;;;;4967765;28;20051;-81
2022/01/27 17:00:07;;;;;;;15.20;1.63;;;;;;;;;;4965918;28;20141;-84
2022/01/27 17:02:37;;;;;;;14.75;2.58;;;;;;;;;;4970703;28;20038;-82
2022/01/27 17:05:05;;;;;;;9.43;1.60;;;;;;;;;;4969575;28;20123;-82
2022/01/27 17:07:33;;;;;;;13.05;2.40;;;;;;;;;;4966934;28;20127;-81
2022/01/27 17:10:00;;;;;;;12.65;1.85;;;;;;;;;;4967877;28;20116;-81
2022/01/27 17:12:31;;;;;;;15.55;1.80;;;;;;;;;;4967551;28;20046;-81
2022/01/27 17:14:59;;;;;;;12.50;1.80;;;;;;;;;;4964673;28;20242;-83
2022/01/27 17:17:28;;;;;;;12.50;1.90;;;;;;;;;;4949355;28;20042;-83